sensor_id;sensor_type;location;lat;lon;timestamp;temperature;humidity
71254;HTU21D;59019;47.638;18.966;2023-01-30T00:00:30;-4.34;92.92
71254;HTU21D;59019;47.638;18.966;2023-01-30T00:02:55;-4.42;93.07
71254;HTU21D;59019;47.638;18.966;2023-01-30T00:05:21;-4.48;93.46
71254;HTU21D;59019;47.638;18.966;2023-01-30T00:07:46;-4.54;93.60
71254;HTU21D;59019;47.638;18.966;2023-01-30T00:10:13;-4.52;93.62
71254;HTU21D;59019;47.638;18.966;2023-01-30T00:12:40;-4.54;93.40
71254;HTU21D;59019;47.638;18.966;2023-01-30T00:15:06;-4.48;93.33
71254;HTU21D;59019;47.638;18.966;2023-01-30T00:17:32;-4.49;93.31
71254;HTU21D;59019;47.638;18.966;2023-01-30T00:19:57;-4.45;93.25
71254;HTU21D;59019;47.638;18.966;2023-01-30T00:22:23;-4.51;93.30
71254;HTU21D;59019;47.638;18.966;2023-01-30T00:24:48;-4.45;93.55
71254;HTU21D;59019;47.638;18.966;2023-01-30T00:27:14;-4.43;93.46
71254;HTU21D;59019;47.638;18.966;2023-01-30T00:29:39;-4.39;93.27
71254;HTU21D;59019;47.638;18.966;2023-01-30T00:32:05;-4.42;93.31
71254;HTU21D;59019;47.638;18.966;2023-01-30T00:34:30;-4.37;93.15
71254;HTU21D;59019;47.638;18.966;2023-01-30T00:36:56;-4.27;92.98
71254;HTU21D;59019;47.638;18.966;2023-01-30T00:39:22;-4.32;92.75
71254;HTU21D;59019;47.638;18.966;2023-01-30T00:41:47;-4.40;92.96
71254;HTU21D;59019;47.638;18.966;2023-01-30T00:44:31;-4.45;93.12
71254;HTU21D;59019;47.638;18.966;2023-01-30T00:47:15;-4.53;93.46
71254;HTU21D;59019;47.638;18.966;2023-01-30T00:49:41;-4.53;93.68
71254;HTU21D;59019;47.638;18.966;2023-01-30T00:52:07;-4.57;93.87
71254;HTU21D;59019;47.638;18.966;2023-01-30T00:54:33;-4.58;93.98
71254;HTU21D;59019;47.638;18.966;2023-01-30T00:56:59;-4.40;93.82
71254;HTU21D;59019;47.638;18.966;2023-01-30T00:59:26;-4.41;93.87
71254;HTU21D;59019;47.638;18.966;2023-01-30T01:01:51;-4.51;94.17
71254;HTU21D;59019;47.638;18.966;2023-01-30T01:04:17;-4.50;95.02
71254;HTU21D;59019;47.638;18.966;2023-01-30T01:06:43;-4.43;94.85
71254;HTU21D;59019;47.638;18.966;2023-01-30T01:09:08;-4.51;94.82
71254;HTU21D;59019;47.638;18.966;2023-01-30T01:11:34;-4.56;94.57
71254;HTU21D;59019;47.638;18.966;2023-01-30T01:14:01;-4.65;94.33
71254;HTU21D;59019;47.638;18.966;2023-01-30T01:16:28;-4.69;94.46
71254;HTU21D;59019;47.638;18.966;2023-01-30T01:18:54;-4.64;94.49
71254;HTU21D;59019;47.638;18.966;2023-01-30T01:21:21;-4.52;94.38
71254;HTU21D;59019;47.638;18.966;2023-01-30T01:23:51;-4.68;94.29
71254;HTU21D;59019;47.638;18.966;2023-01-30T01:26:17;-4.66;94.58
71254;HTU21D;59019;47.638;18.966;2023-01-30T01:28:43;-4.60;94.92
71254;HTU21D;59019;47.638;18.966;2023-01-30T01:31:10;-4.56;94.78
71254;HTU21D;59019;47.638;18.966;2023-01-30T01:33:36;-4.57;94.72
71254;HTU21D;59019;47.638;18.966;2023-01-30T01:36:02;-4.44;94.59
71254;HTU21D;59019;47.638;18.966;2023-01-30T01:38:27;-4.49;94.57
71254;HTU21D;59019;47.638;18.966;2023-01-30T01:40:53;-4.44;94.49
71254;HTU21D;59019;47.638;18.966;2023-01-30T01:46:24;-4.57;94.85
71254;HTU21D;59019;47.638;18.966;2023-01-30T01:48:52;-4.57;95.02
71254;HTU21D;59019;47.638;18.966;2023-01-30T01:51:30;-4.51;94.65
71254;HTU21D;59019;47.638;18.966;2023-01-30T01:54:13;-4.55;94.70
71254;HTU21D;59019;47.638;18.966;2023-01-30T01:56:42;-4.52;94.89
71254;HTU21D;59019;47.638;18.966;2023-01-30T01:59:20;-4.60;94.97
71254;HTU21D;59019;47.638;18.966;2023-01-30T02:01:49;-4.53;96.11
71254;HTU21D;59019;47.638;18.966;2023-01-30T02:04:16;-4.53;96.42
71254;HTU21D;59019;47.638;18.966;2023-01-30T02:07:01;-4.40;97.52
71254;HTU21D;59019;47.638;18.966;2023-01-30T02:09:27;-4.43;96.87
71254;HTU21D;59019;47.638;18.966;2023-01-30T02:11:55;-4.30;98.01
71254;HTU21D;59019;47.638;18.966;2023-01-30T02:14:22;-4.39;96.20
71254;HTU21D;59019;47.638;18.966;2023-01-30T02:16:48;-4.32;95.15
71254;HTU21D;59019;47.638;18.966;2023-01-30T02:25:29;-4.40;93.27
71254;HTU21D;59019;47.638;18.966;2023-01-30T02:33:36;-4.45;92.85
71254;HTU21D;59019;47.638;18.966;2023-01-30T02:36:14;-4.50;92.85
71254;HTU21D;59019;47.638;18.966;2023-01-30T02:38:59;-4.53;92.73
71254;HTU21D;59019;47.638;18.966;2023-01-30T02:41:36;-4.64;92.88
71254;HTU21D;59019;47.638;18.966;2023-01-30T02:44:17;-4.74;93.70
71254;HTU21D;59019;47.638;18.966;2023-01-30T02:49:29;-4.86;94.37
71254;HTU21D;59019;47.638;18.966;2023-01-30T02:51:57;-4.89;94.72
71254;HTU21D;59019;47.638;18.966;2023-01-30T02:54:24;-4.94;95.17
71254;HTU21D;59019;47.638;18.966;2023-01-30T02:56:53;-4.95;95.14
71254;HTU21D;59019;47.638;18.966;2023-01-30T02:59:34;-4.79;94.97
71254;HTU21D;59019;47.638;18.966;2023-01-30T03:02:23;-4.85;94.97
71254;HTU21D;59019;47.638;18.966;2023-01-30T03:16:01;-4.70;97.01
71254;HTU21D;59019;47.638;18.966;2023-01-30T03:18:27;-4.72;96.60
71254;HTU21D;59019;47.638;18.966;2023-01-30T03:20:53;-4.63;98.05
71254;HTU21D;59019;47.638;18.966;2023-01-30T03:23:19;-4.74;96.75
71254;HTU21D;59019;47.638;18.966;2023-01-30T03:25:45;-4.78;95.58
71254;HTU21D;59019;47.638;18.966;2023-01-30T03:28:14;-4.78;94.93
71254;HTU21D;59019;47.638;18.966;2023-01-30T03:30:41;-4.79;94.75
71254;HTU21D;59019;47.638;18.966;2023-01-30T03:33:06;-4.75;94.64
71254;HTU21D;59019;47.638;18.966;2023-01-30T03:35:32;-4.70;94.48
71254;HTU21D;59019;47.638;18.966;2023-01-30T03:37:58;-4.83;94.40
71254;HTU21D;59019;47.638;18.966;2023-01-30T03:40:24;-4.79;94.68
71254;HTU21D;59019;47.638;18.966;2023-01-30T03:42:49;-4.89;94.64
71254;HTU21D;59019;47.638;18.966;2023-01-30T03:45:15;-4.91;94.83
71254;HTU21D;59019;47.638;18.966;2023-01-30T03:47:40;-4.91;94.66
71254;HTU21D;59019;47.638;18.966;2023-01-30T03:50:06;-4.93;94.43
71254;HTU21D;59019;47.638;18.966;2023-01-30T03:52:34;-4.96;94.59
71254;HTU21D;59019;47.638;18.966;2023-01-30T03:54:59;-4.95;94.49
71254;HTU21D;59019;47.638;18.966;2023-01-30T03:57:25;-5.01;94.78
71254;HTU21D;59019;47.638;18.966;2023-01-30T03:59:50;-5.07;94.90
71254;HTU21D;59019;47.638;18.966;2023-01-30T04:02:16;-5.05;94.93
71254;HTU21D;59019;47.638;18.966;2023-01-30T04:04:46;-5.04;95.06
71254;HTU21D;59019;47.638;18.966;2023-01-30T04:07:12;-5.12;94.96
71254;HTU21D;59019;47.638;18.966;2023-01-30T04:09:37;-5.10;95.10
71254;HTU21D;59019;47.638;18.966;2023-01-30T04:12:03;-5.16;94.84
71254;HTU21D;59019;47.638;18.966;2023-01-30T04:14:29;-5.12;95.03
71254;HTU21D;59019;47.638;18.966;2023-01-30T04:16:54;-5.04;94.88
71254;HTU21D;59019;47.638;18.966;2023-01-30T04:19:20;-5.08;95.25
71254;HTU21D;59019;47.638;18.966;2023-01-30T04:21:45;-4.89;95.30
71254;HTU21D;59019;47.638;18.966;2023-01-30T04:24:11;-4.84;95.60
71254;HTU21D;59019;47.638;18.966;2023-01-30T04:26:37;-4.79;95.57
71254;HTU21D;59019;47.638;18.966;2023-01-30T04:29:02;-4.76;95.82
71254;HTU21D;59019;47.638;18.966;2023-01-30T04:31:28;-4.70;96.36
71254;HTU21D;59019;47.638;18.966;2023-01-30T04:33:53;-4.69;96.10
71254;HTU21D;59019;47.638;18.966;2023-01-30T04:36:19;-4.61;96.13
71254;HTU21D;59019;47.638;18.966;2023-01-30T04:38:44;-4.61;95.94
71254;HTU21D;59019;47.638;18.966;2023-01-30T04:41:10;-4.57;95.61
71254;HTU21D;59019;47.638;18.966;2023-01-30T04:43:35;-4.58;95.65
71254;HTU21D;59019;47.638;18.966;2023-01-30T04:46:02;-4.54;95.45
71254;HTU21D;59019;47.638;18.966;2023-01-30T04:48:28;-4.49;95.39
71254;HTU21D;59019;47.638;18.966;2023-01-30T04:50:55;-4.44;95.37
71254;HTU21D;59019;47.638;18.966;2023-01-30T04:53:21;-4.50;95.65
71254;HTU21D;59019;47.638;18.966;2023-01-30T04:55:47;-4.41;96.01
71254;HTU21D;59019;47.638;18.966;2023-01-30T04:58:14;-4.39;95.71
71254;HTU21D;59019;47.638;18.966;2023-01-30T05:00:39;-4.43;95.77
71254;HTU21D;59019;47.638;18.966;2023-01-30T05:03:05;-4.39;96.23
71254;HTU21D;59019;47.638;18.966;2023-01-30T05:05:31;-4.30;96.42
71254;HTU21D;59019;47.638;18.966;2023-01-30T05:07:57;-4.26;96.40
71254;HTU21D;59019;47.638;18.966;2023-01-30T05:10:23;-4.21;96.37
71254;HTU21D;59019;47.638;18.966;2023-01-30T05:12:48;-4.19;96.46
71254;HTU21D;59019;47.638;18.966;2023-01-30T05:15:14;-4.23;96.08
71254;HTU21D;59019;47.638;18.966;2023-01-30T05:17:40;-4.09;96.65
71254;HTU21D;59019;47.638;18.966;2023-01-30T05:20:07;-4.21;96.45
71254;HTU21D;59019;47.638;18.966;2023-01-30T05:22:33;-4.20;96.94
71254;HTU21D;59019;47.638;18.966;2023-01-30T05:24:59;-4.21;96.49
71254;HTU21D;59019;47.638;18.966;2023-01-30T05:27:25;-4.15;96.77
71254;HTU21D;59019;47.638;18.966;2023-01-30T05:29:50;-4.05;96.46
71254;HTU21D;59019;47.638;18.966;2023-01-30T05:32:17;-4.16;96.29
71254;HTU21D;59019;47.638;18.966;2023-01-30T05:34:43;-4.15;96.45
71254;HTU21D;59019;47.638;18.966;2023-01-30T05:37:11;-4.14;96.36
71254;HTU21D;59019;47.638;18.966;2023-01-30T05:39:38;-4.15;96.18
71254;HTU21D;59019;47.638;18.966;2023-01-30T05:42:03;-4.20;96.23
71254;HTU21D;59019;47.638;18.966;2023-01-30T05:44:29;-4.13;96.18
71254;HTU21D;59019;47.638;18.966;2023-01-30T05:46:55;-4.19;96.42
71254;HTU21D;59019;47.638;18.966;2023-01-30T05:49:21;-4.20;96.59
71254;HTU21D;59019;47.638;18.966;2023-01-30T05:51:46;-4.17;96.71
71254;HTU21D;59019;47.638;18.966;2023-01-30T05:54:12;-4.06;97.16
71254;HTU21D;59019;47.638;18.966;2023-01-30T05:56:38;-3.91;98.82
71254;HTU21D;59019;47.638;18.966;2023-01-30T05:59:03;-3.97;98.80
71254;HTU21D;59019;47.638;18.966;2023-01-30T06:01:29;-3.90;98.23
71254;HTU21D;59019;47.638;18.966;2023-01-30T06:03:56;-3.86;98.22
71254;HTU21D;59019;47.638;18.966;2023-01-30T06:06:22;-3.87;97.61
71254;HTU21D;59019;47.638;18.966;2023-01-30T06:08:52;-3.90;96.78
71254;HTU21D;59019;47.638;18.966;2023-01-30T06:11:18;-3.80;97.33
71254;HTU21D;59019;47.638;18.966;2023-01-30T06:13:44;-3.90;96.61
71254;HTU21D;59019;47.638;18.966;2023-01-30T06:16:11;-4.05;96.23
71254;HTU21D;59019;47.638;18.966;2023-01-30T06:18:38;-4.13;96.25
71254;HTU21D;59019;47.638;18.966;2023-01-30T06:21:04;-4.11;96.66
71254;HTU21D;59019;47.638;18.966;2023-01-30T06:23:30;-4.15;96.47
71254;HTU21D;59019;47.638;18.966;2023-01-30T06:25:56;-4.23;96.77
71254;HTU21D;59019;47.638;18.966;2023-01-30T06:28:22;-4.19;97.01
71254;HTU21D;59019;47.638;18.966;2023-01-30T06:30:48;-4.13;97.17
71254;HTU21D;59019;47.638;18.966;2023-01-30T06:33:14;-4.11;97.24
71254;HTU21D;59019;47.638;18.966;2023-01-30T06:35:40;-3.97;97.10
71254;HTU21D;59019;47.638;18.966;2023-01-30T06:38:07;-3.84;96.94
71254;HTU21D;59019;47.638;18.966;2023-01-30T06:40:38;-3.63;97.02
71254;HTU21D;59019;47.638;18.966;2023-01-30T06:43:03;-3.48;97.58
71254;HTU21D;59019;47.638;18.966;2023-01-30T06:45:29;-3.25;98.43
71254;HTU21D;59019;47.638;18.966;2023-01-30T06:47:55;-3.06;99.12
71254;HTU21D;59019;47.638;18.966;2023-01-30T06:50:23;-2.92;99.47
71254;HTU21D;59019;47.638;18.966;2023-01-30T06:52:50;-2.76;99.22
71254;HTU21D;59019;47.638;18.966;2023-01-30T06:55:18;-2.75;97.32
71254;HTU21D;59019;47.638;18.966;2023-01-30T06:57:44;-2.66;96.29
71254;HTU21D;59019;47.638;18.966;2023-01-30T07:00:13;-2.75;94.43
71254;HTU21D;59019;47.638;18.966;2023-01-30T07:02:39;-2.68;93.87
71254;HTU21D;59019;47.638;18.966;2023-01-30T07:05:07;-2.57;93.53
71254;HTU21D;59019;47.638;18.966;2023-01-30T07:07:33;-2.42;93.31
71254;HTU21D;59019;47.638;18.966;2023-01-30T07:09:59;-2.46;92.79
71254;HTU21D;59019;47.638;18.966;2023-01-30T07:12:25;-2.37;92.79
71254;HTU21D;59019;47.638;18.966;2023-01-30T07:14:51;-2.39;92.68
71254;HTU21D;59019;47.638;18.966;2023-01-30T07:17:19;-2.41;92.90
71254;HTU21D;59019;47.638;18.966;2023-01-30T07:19:46;-2.32;93.01
71254;HTU21D;59019;47.638;18.966;2023-01-30T07:22:13;-2.22;92.85
71254;HTU21D;59019;47.638;18.966;2023-01-30T07:24:39;-2.23;92.53
71254;HTU21D;59019;47.638;18.966;2023-01-30T07:27:09;-2.10;92.86
71254;HTU21D;59019;47.638;18.966;2023-01-30T07:29:36;-1.92;94.13
71254;HTU21D;59019;47.638;18.966;2023-01-30T07:32:02;-1.87;95.80
71254;HTU21D;59019;47.638;18.966;2023-01-30T07:34:28;-1.74;95.43
71254;HTU21D;59019;47.638;18.966;2023-01-30T07:36:54;-1.70;94.14
71254;HTU21D;59019;47.638;18.966;2023-01-30T07:39:19;-1.69;93.21
71254;HTU21D;59019;47.638;18.966;2023-01-30T07:41:45;-1.55;93.33
71254;HTU21D;59019;47.638;18.966;2023-01-30T07:44:11;-1.41;93.14
71254;HTU21D;59019;47.638;18.966;2023-01-30T07:46:37;-1.46;91.94
71254;HTU21D;59019;47.638;18.966;2023-01-30T07:49:04;-1.35;91.59
71254;HTU21D;59019;47.638;18.966;2023-01-30T07:51:30;-1.27;91.27
71254;HTU21D;59019;47.638;18.966;2023-01-30T07:53:56;-1.26;91.01
71254;HTU21D;59019;47.638;18.966;2023-01-30T07:56:21;-1.19;90.89
71254;HTU21D;59019;47.638;18.966;2023-01-30T07:58:48;-1.03;91.00
71254;HTU21D;59019;47.638;18.966;2023-01-30T08:01:14;-1.08;90.66
71254;HTU21D;59019;47.638;18.966;2023-01-30T08:03:40;-1.00;90.84
71254;HTU21D;59019;47.638;18.966;2023-01-30T08:06:06;-0.94;90.86
71254;HTU21D;59019;47.638;18.966;2023-01-30T08:08:31;-0.88;90.79
71254;HTU21D;59019;47.638;18.966;2023-01-30T08:10:57;-0.75;91.03
71254;HTU21D;59019;47.638;18.966;2023-01-30T08:13:23;-0.68;91.13
71254;HTU21D;59019;47.638;18.966;2023-01-30T08:15:48;-0.59;91.22
71254;HTU21D;59019;47.638;18.966;2023-01-30T08:18:16;-0.59;91.07
71254;HTU21D;59019;47.638;18.966;2023-01-30T08:20:41;-0.61;91.23
71254;HTU21D;59019;47.638;18.966;2023-01-30T08:23:11;-0.56;91.49
71254;HTU21D;59019;47.638;18.966;2023-01-30T08:25:36;-0.55;91.59
71254;HTU21D;59019;47.638;18.966;2023-01-30T08:28:03;-0.24;91.43
71254;HTU21D;59019;47.638;18.966;2023-01-30T08:30:29;-0.10;90.58
71254;HTU21D;59019;47.638;18.966;2023-01-30T08:32:56;-0.02;90.17
71254;HTU21D;59019;47.638;18.966;2023-01-30T08:35:22;0.02;89.92
71254;HTU21D;59019;47.638;18.966;2023-01-30T08:37:47;0.02;89.76
71254;HTU21D;59019;47.638;18.966;2023-01-30T08:40:14;0.15;89.49
71254;HTU21D;59019;47.638;18.966;2023-01-30T08:42:42;0.28;89.24
71254;HTU21D;59019;47.638;18.966;2023-01-30T08:45:08;0.14;89.21
71254;HTU21D;59019;47.638;18.966;2023-01-30T08:47:34;-0.02;89.31
71254;HTU21D;59019;47.638;18.966;2023-01-30T08:50:00;0.09;89.81
71254;HTU21D;59019;47.638;18.966;2023-01-30T08:52:26;0.08;89.86
71254;HTU21D;59019;47.638;18.966;2023-01-30T08:54:51;0.19;89.79
71254;HTU21D;59019;47.638;18.966;2023-01-30T08:57:17;0.06;89.95
71254;HTU21D;59019;47.638;18.966;2023-01-30T08:59:43;0.13;90.22
71254;HTU21D;59019;47.638;18.966;2023-01-30T09:02:11;0.22;89.86
71254;HTU21D;59019;47.638;18.966;2023-01-30T09:04:37;0.04;89.69
71254;HTU21D;59019;47.638;18.966;2023-01-30T09:07:03;0.20;90.02
71254;HTU21D;59019;47.638;18.966;2023-01-30T09:09:29;-0.03;90.44
71254;HTU21D;59019;47.638;18.966;2023-01-30T09:11:54;-0.03;91.06
71254;HTU21D;59019;47.638;18.966;2023-01-30T09:14:20;0.08;90.99
71254;HTU21D;59019;47.638;18.966;2023-01-30T09:16:47;0.10;90.53
71254;HTU21D;59019;47.638;18.966;2023-01-30T09:19:13;-0.00;90.66
71254;HTU21D;59019;47.638;18.966;2023-01-30T09:21:39;-0.37;90.84
71254;HTU21D;59019;47.638;18.966;2023-01-30T09:24:05;-0.25;91.28
71254;HTU21D;59019;47.638;18.966;2023-01-30T09:26:31;-0.06;91.78
71254;HTU21D;59019;47.638;18.966;2023-01-30T09:28:56;0.13;91.37
71254;HTU21D;59019;47.638;18.966;2023-01-30T09:31:22;0.18;90.89
71254;HTU21D;59019;47.638;18.966;2023-01-30T09:33:48;0.27;90.41
71254;HTU21D;59019;47.638;18.966;2023-01-30T09:36:13;0.12;90.13
71254;HTU21D;59019;47.638;18.966;2023-01-30T09:38:40;0.23;90.84
71254;HTU21D;59019;47.638;18.966;2023-01-30T09:55:03;0.68;89.43
71254;HTU21D;59019;47.638;18.966;2023-01-30T09:57:44;0.69;89.36
71254;HTU21D;59019;47.638;18.966;2023-01-30T10:02:51;1.14;88.92
71254;HTU21D;59019;47.638;18.966;2023-01-30T10:05:18;1.16;88.10
71254;HTU21D;59019;47.638;18.966;2023-01-30T10:18:54;1.24;87.55
71254;HTU21D;59019;47.638;18.966;2023-01-30T10:26:47;1.49;87.17
71254;HTU21D;59019;47.638;18.966;2023-01-30T10:29:17;1.78;86.77
71254;HTU21D;59019;47.638;18.966;2023-01-30T10:31:46;1.90;86.49
71254;HTU21D;59019;47.638;18.966;2023-01-30T10:34:34;1.86;86.10
71254;HTU21D;59019;47.638;18.966;2023-01-30T10:39:46;2.01;85.16
71254;HTU21D;59019;47.638;18.966;2023-01-30T10:42:20;1.77;84.72
71254;HTU21D;59019;47.638;18.966;2023-01-30T10:44:48;1.96;85.03
71254;HTU21D;59019;47.638;18.966;2023-01-30T10:50:04;1.93;84.03
71254;HTU21D;59019;47.638;18.966;2023-01-30T10:55:34;1.79;84.10
71254;HTU21D;59019;47.638;18.966;2023-01-30T11:00:42;1.67;84.55
71254;HTU21D;59019;47.638;18.966;2023-01-30T11:04:06;1.85;85.88
71254;HTU21D;59019;47.638;18.966;2023-01-30T11:06:38;2.06;84.58
71254;HTU21D;59019;47.638;18.966;2023-01-30T11:09:04;2.03;84.66
71254;HTU21D;59019;47.638;18.966;2023-01-30T11:11:52;2.02;84.23
71254;HTU21D;59019;47.638;18.966;2023-01-30T11:14:18;1.94;85.35
71254;HTU21D;59019;47.638;18.966;2023-01-30T11:16:55;1.96;84.84
71254;HTU21D;59019;47.638;18.966;2023-01-30T11:19:23;1.71;84.69
71254;HTU21D;59019;47.638;18.966;2023-01-30T11:21:53;1.79;84.83
71254;HTU21D;59019;47.638;18.966;2023-01-30T11:24:22;1.69;85.32
71254;HTU21D;59019;47.638;18.966;2023-01-30T11:26:49;1.80;84.99
71254;HTU21D;59019;47.638;18.966;2023-01-30T11:29:28;1.90;84.32
71254;HTU21D;59019;47.638;18.966;2023-01-30T11:32:14;1.96;84.56
71254;HTU21D;59019;47.638;18.966;2023-01-30T11:37:36;2.03;85.01
71254;HTU21D;59019;47.638;18.966;2023-01-30T11:42:48;1.88;85.06
71254;HTU21D;59019;47.638;18.966;2023-01-30T11:45:16;2.07;86.39
71254;HTU21D;59019;47.638;18.966;2023-01-30T11:47:59;2.06;86.24
71254;HTU21D;59019;47.638;18.966;2023-01-30T11:50:32;2.13;85.49
71254;HTU21D;59019;47.638;18.966;2023-01-30T11:53:02;2.11;84.60
71254;HTU21D;59019;47.638;18.966;2023-01-30T11:55:34;2.09;84.68
71254;HTU21D;59019;47.638;18.966;2023-01-30T11:58:07;1.93;84.71
71254;HTU21D;59019;47.638;18.966;2023-01-30T12:00:47;1.94;84.94
71254;HTU21D;59019;47.638;18.966;2023-01-30T12:03:17;1.93;85.08
71254;HTU21D;59019;47.638;18.966;2023-01-30T12:05:45;1.77;85.17
71254;HTU21D;59019;47.638;18.966;2023-01-30T12:10:55;1.83;87.72
71254;HTU21D;59019;47.638;18.966;2023-01-30T12:13:40;2.12;90.17
71254;HTU21D;59019;47.638;18.966;2023-01-30T12:16:21;2.29;88.65
71254;HTU21D;59019;47.638;18.966;2023-01-30T12:28:03;1.84;84.77
71254;HTU21D;59019;47.638;18.966;2023-01-30T12:33:03;2.15;85.41
71254;HTU21D;59019;47.638;18.966;2023-01-30T12:38:24;2.34;85.07
71254;HTU21D;59019;47.638;18.966;2023-01-30T12:43:53;2.50;84.74
71254;HTU21D;59019;47.638;18.966;2023-01-30T12:46:40;2.47;84.21
71254;HTU21D;59019;47.638;18.966;2023-01-30T12:49:20;2.54;84.19
71254;HTU21D;59019;47.638;18.966;2023-01-30T12:54:44;2.57;84.35
71254;HTU21D;59019;47.638;18.966;2023-01-30T13:00:39;2.56;84.52
71254;HTU21D;59019;47.638;18.966;2023-01-30T13:03:17;2.56;85.04
71254;HTU21D;59019;47.638;18.966;2023-01-30T13:25:40;2.28;88.32
71254;HTU21D;59019;47.638;18.966;2023-01-30T13:28:17;2.42;88.06
71254;HTU21D;59019;47.638;18.966;2023-01-30T13:30:44;2.41;86.58
71254;HTU21D;59019;47.638;18.966;2023-01-30T13:33:19;2.51;87.68
71254;HTU21D;59019;47.638;18.966;2023-01-30T13:35:50;2.44;86.64
71254;HTU21D;59019;47.638;18.966;2023-01-30T13:38:23;2.39;85.78
71254;HTU21D;59019;47.638;18.966;2023-01-30T13:40:54;2.53;85.33
71254;HTU21D;59019;47.638;18.966;2023-01-30T13:43:35;2.40;85.44
71254;HTU21D;59019;47.638;18.966;2023-01-30T13:46:06;2.55;85.61
71254;HTU21D;59019;47.638;18.966;2023-01-30T13:57:11;2.72;85.04
71254;HTU21D;59019;47.638;18.966;2023-01-30T14:02:23;2.72;86.41
71254;HTU21D;59019;47.638;18.966;2023-01-30T14:04:54;2.76;86.64
71254;HTU21D;59019;47.638;18.966;2023-01-30T14:12:44;2.82;89.02
71254;HTU21D;59019;47.638;18.966;2023-01-30T14:20:22;2.52;89.15
71254;HTU21D;59019;47.638;18.966;2023-01-30T14:23:22;2.62;88.70
71254;HTU21D;59019;47.638;18.966;2023-01-30T14:25:51;2.73;88.15
71254;HTU21D;59019;47.638;18.966;2023-01-30T14:30:49;2.53;88.71
71254;HTU21D;59019;47.638;18.966;2023-01-30T14:38:28;2.38;89.17
71254;HTU21D;59019;47.638;18.966;2023-01-30T15:07:37;1.83;93.15
71254;HTU21D;59019;47.638;18.966;2023-01-30T15:13:19;1.69;92.95
71254;HTU21D;59019;47.638;18.966;2023-01-30T15:22:15;1.70;93.43
71254;HTU21D;59019;47.638;18.966;2023-01-30T15:24:57;1.67;93.21
71254;HTU21D;59019;47.638;18.966;2023-01-30T15:32:41;1.45;95.43
71254;HTU21D;59019;47.638;18.966;2023-01-30T15:40:17;1.54;96.96
71254;HTU21D;59019;47.638;18.966;2023-01-30T15:50:48;1.61;97.59
71254;HTU21D;59019;47.638;18.966;2023-01-30T15:53:15;1.55;97.19
71254;HTU21D;59019;47.638;18.966;2023-01-30T15:55:42;1.57;97.12
71254;HTU21D;59019;47.638;18.966;2023-01-30T15:58:16;1.45;97.08
71254;HTU21D;59019;47.638;18.966;2023-01-30T16:00:48;1.36;97.82
71254;HTU21D;59019;47.638;18.966;2023-01-30T16:03:23;1.38;97.74
71254;HTU21D;59019;47.638;18.966;2023-01-30T16:05:52;1.21;97.93
71254;HTU21D;59019;47.638;18.966;2023-01-30T16:08:28;1.26;98.03
71254;HTU21D;59019;47.638;18.966;2023-01-30T16:10:54;1.31;98.29
71254;HTU21D;59019;47.638;18.966;2023-01-30T16:13:21;1.35;98.07
71254;HTU21D;59019;47.638;18.966;2023-01-30T16:20:49;1.45;99.93
71254;HTU21D;59019;47.638;18.966;2023-01-30T16:23:23;1.42;99.29
71254;HTU21D;59019;47.638;18.966;2023-01-30T16:25:52;1.37;99.11
71254;HTU21D;59019;47.638;18.966;2023-01-30T16:28:23;1.21;98.87
71254;HTU21D;59019;47.638;18.966;2023-01-30T16:30:57;1.20;99.07
71254;HTU21D;59019;47.638;18.966;2023-01-30T16:33:23;1.19;99.06
71254;HTU21D;59019;47.638;18.966;2023-01-30T16:35:49;1.01;99.64
71254;HTU21D;59019;47.638;18.966;2023-01-30T16:40:53;0.94;100.34
71254;HTU21D;59019;47.638;18.966;2023-01-30T16:43:22;0.96;100.49
71254;HTU21D;59019;47.638;18.966;2023-01-30T16:50:48;1.12;100.12
71254;HTU21D;59019;47.638;18.966;2023-01-30T16:53:16;1.20;100.03
71254;HTU21D;59019;47.638;18.966;2023-01-30T16:58:21;1.24;99.63
71254;HTU21D;59019;47.638;18.966;2023-01-30T17:00:50;1.03;100.97
71254;HTU21D;59019;47.638;18.966;2023-01-30T17:03:24;1.13;100.78
71254;HTU21D;59019;47.638;18.966;2023-01-30T17:05:54;1.13;100.34
71254;HTU21D;59019;47.638;18.966;2023-01-30T17:11:03;1.07;101.22
71254;HTU21D;59019;47.638;18.966;2023-01-30T17:13:37;1.08;101.57
71254;HTU21D;59019;47.638;18.966;2023-01-30T17:18:52;1.16;101.96
71254;HTU21D;59019;47.638;18.966;2023-01-30T17:21:19;1.01;101.86
71254;HTU21D;59019;47.638;18.966;2023-01-30T17:23:50;0.99;102.08
71254;HTU21D;59019;47.638;18.966;2023-01-30T17:26:17;1.02;101.77
71254;HTU21D;59019;47.638;18.966;2023-01-30T17:28:43;1.04;101.33
71254;HTU21D;59019;47.638;18.966;2023-01-30T17:31:14;0.98;101.37
71254;HTU21D;59019;47.638;18.966;2023-01-30T17:33:42;1.01;101.83
71254;HTU21D;59019;47.638;18.966;2023-01-30T17:36:18;0.87;101.94
71254;HTU21D;59019;47.638;18.966;2023-01-30T17:38:45;0.81;102.22
71254;HTU21D;59019;47.638;18.966;2023-01-30T17:41:19;0.87;102.75
71254;HTU21D;59019;47.638;18.966;2023-01-30T17:43:46;0.84;102.87
71254;HTU21D;59019;47.638;18.966;2023-01-30T17:46:12;0.88;102.92
71254;HTU21D;59019;47.638;18.966;2023-01-30T17:48:37;0.87;103.07
71254;HTU21D;59019;47.638;18.966;2023-01-30T17:51:03;0.97;103.12
71254;HTU21D;59019;47.638;18.966;2023-01-30T17:53:28;1.08;102.70
71254;HTU21D;59019;47.638;18.966;2023-01-30T17:55:54;1.22;102.17
71254;HTU21D;59019;47.638;18.966;2023-01-30T17:58:20;1.20;101.73
71254;HTU21D;59019;47.638;18.966;2023-01-30T18:00:45;1.29;101.96
71254;HTU21D;59019;47.638;18.966;2023-01-30T18:03:15;1.32;102.52
71254;HTU21D;59019;47.638;18.966;2023-01-30T18:05:41;1.53;103.73
71254;HTU21D;59019;47.638;18.966;2023-01-30T18:08:06;1.49;103.39
71254;HTU21D;59019;47.638;18.966;2023-01-30T18:10:32;1.32;102.15
71254;HTU21D;59019;47.638;18.966;2023-01-30T18:12:58;1.27;102.12
71254;HTU21D;59019;47.638;18.966;2023-01-30T18:15:23;1.27;101.93
71254;HTU21D;59019;47.638;18.966;2023-01-30T18:17:49;1.33;101.63
71254;HTU21D;59019;47.638;18.966;2023-01-30T18:20:17;1.25;101.38
71254;HTU21D;59019;47.638;18.966;2023-01-30T18:22:43;1.32;101.51
71254;HTU21D;59019;47.638;18.966;2023-01-30T18:25:09;1.22;101.48
71254;HTU21D;59019;47.638;18.966;2023-01-30T18:27:39;1.22;101.76
71254;HTU21D;59019;47.638;18.966;2023-01-30T18:30:05;1.28;101.68
71254;HTU21D;59019;47.638;18.966;2023-01-30T18:32:31;1.36;101.35
71254;HTU21D;59019;47.638;18.966;2023-01-30T18:34:57;1.40;100.93
71254;HTU21D;59019;47.638;18.966;2023-01-30T18:37:22;1.45;100.77
71254;HTU21D;59019;47.638;18.966;2023-01-30T18:39:48;1.51;100.32
71254;HTU21D;59019;47.638;18.966;2023-01-30T18:42:13;1.57;99.91
71254;HTU21D;59019;47.638;18.966;2023-01-30T18:44:39;1.66;99.53
71254;HTU21D;59019;47.638;18.966;2023-01-30T18:47:04;1.64;99.44
71254;HTU21D;59019;47.638;18.966;2023-01-30T18:49:30;1.67;99.43
71254;HTU21D;59019;47.638;18.966;2023-01-30T18:51:55;1.64;99.32
71254;HTU21D;59019;47.638;18.966;2023-01-30T18:54:21;1.72;98.95
71254;HTU21D;59019;47.638;18.966;2023-01-30T18:56:46;1.76;99.46
71254;HTU21D;59019;47.638;18.966;2023-01-30T18:59:12;1.84;100.09
71254;HTU21D;59019;47.638;18.966;2023-01-30T19:01:39;1.94;100.74